This is the latest recevied weather packets stored in our database for station/object BM3JAS-9. If no packets are shown the sender has not sent any weather packets the latest 10 day(s).
| Time | Temp. | Humidity | Pressure | Rain* | Wind** | Luminosity | Snow |
|---|---|---|---|---|---|---|---|
| 1777864080 | 25.56° C | 62% | 0 hPa | - | - | - | - |
| 1777846680 | 23.33° C | 72% | 0 hPa | - | - | - | - |
| 1777845480 | 22.78° C | 72% | 0 hPa | - | - | - | - |
| 1777844280 | 23.33° C | 71% | 0 hPa | - | - | - | - |
| 1777843680 | 23.33° C | 71% | 0 hPa | - | - | - | - |
| 1777843080 | 23.33° C | 71% | 0 hPa | - | - | - | - |
| 1777842480 | 23.33° C | 70% | 0 hPa | - | - | - | - |
| 1777841280 | 23.89° C | 70% | 0 hPa | - | - | - | - |
| 1777840680 | 23.89° C | 69% | 0 hPa | - | - | - | - |
| 1777840080 | 23.89° C | 69% | 0 hPa | - | - | - | - |
| 1777839480 | 23.89° C | 68% | 0 hPa | - | - | - | - |
| 1777837680 | 24.44° C | 67% | 0 hPa | - | - | - | - |
| 1777836480 | 24.44° C | 66% | 0 hPa | - | - | - | - |
| 1777835880 | 24.44° C | 64% | 0 hPa | - | - | - | - |
| 1777832880 | 25° C | 68% | 0 hPa | - | - | - | - |
| 1777829280 | 25° C | 70% | 0 hPa | - | - | - | - |
| 1777828680 | 25° C | 71% | 0 hPa | - | - | - | - |
| 1777826880 | 25° C | 71% | 0 hPa | - | - | - | - |
| 1777826280 | 25° C | 72% | 0 hPa | - | - | - | - |
| 1777825680 | 25° C | 71% | 0 hPa | - | - | - | - |
| 1777824480 | 25° C | 72% | 0 hPa | - | - | - | - |
| 1777822680 | 25.56° C | 75% | 0 hPa | - | - | - | - |
| 1777822080 | 25.56° C | 76% | 0 hPa | - | - | - | - |
| 1777821480 | 25.56° C | 77% | 0 hPa | - | - | - | - |
| 1777820280 | 26.11° C | 77% | 0 hPa | - | - | - | - |
* Rain since midnight (hover to see other rain measurements)
** Current wind speed in m/s (hover to see current wind gust speed)